Time;durP1;ratioP1;P1;durP2;ratioP2;P2;SDS_P1;SDS_P2;PMS_P1;PMS_P2;Temp;Humidity;BMP_temperature;BMP_pressure;BME280_temperature;BME280_humidity;BME280_pressure;Samples;Min_cycle;Max_cycle;Signal;HPM_P1;HPM_P2
2022/03/19 00:02:55;;;;;;;15.32;3.17;;;;;;;;;;10333809;28;20141;-72
2022/03/19 00:07:57;;;;;;;12.25;3.67;;;;;;;;;;10321015;28;20043;-72
2022/03/19 00:12:59;;;;;;;10.25;2.42;;;;;;;;;;10334333;28;20048;-71
2022/03/19 00:18:00;;;;;;;10.52;3.40;;;;;;;;;;10320818;28;20054;-71
2022/03/19 00:23:02;;;;;;;9.27;2.38;;;;;;;;;;10320878;28;20050;-72
2022/03/19 00:28:04;;;;;;;11.82;3.03;;;;;;;;;;10326863;28;20046;-72
2022/03/19 00:33:06;;;;;;;14.00;3.03;;;;;;;;;;10320126;28;20046;-72
2022/03/19 00:38:07;;;;;;;16.13;3.25;;;;;;;;;;10326913;28;20073;-73
2022/03/19 00:43:09;;;;;;;14.38;2.95;;;;;;;;;;10320909;28;20236;-72
2022/03/19 00:48:11;;;;;;;12.15;3.05;;;;;;;;;;10326862;28;20486;-72
2022/03/19 00:53:12;;;;;;;17.25;3.75;;;;;;;;;;10319948;28;20053;-72
2022/03/19 00:58:13;;;;;;;11.20;2.85;;;;;;;;;;10326927;28;20046;-73
2022/03/19 01:03:15;;;;;;;11.60;3.00;;;;;;;;;;10359911;28;20070;-72
2022/03/19 01:08:18;;;;;;;12.30;3.05;;;;;;;;;;10331844;28;20049;-72
2022/03/19 01:13:19;;;;;;;11.15;2.80;;;;;;;;;;10333975;28;20054;-72
2022/03/19 01:18:21;;;;;;;14.57;3.17;;;;;;;;;;10322670;28;20093;-72
2022/03/19 01:23:22;;;;;;;10.40;2.80;;;;;;;;;;10326566;28;20082;-73
2022/03/19 01:28:24;;;;;;;11.73;3.28;;;;;;;;;;10322485;28;20424;-72
2022/03/19 01:33:25;;;;;;;15.43;3.50;;;;;;;;;;10332383;28;20517;-73
2022/03/19 01:38:26;;;;;;;14.90;3.60;;;;;;;;;;10326876;28;20051;-72
2022/03/19 01:43:28;;;;;;;11.00;3.47;;;;;;;;;;10350180;28;20129;-73
2022/03/19 01:48:29;;;;;;;16.45;3.30;;;;;;;;;;10338009;28;20601;-72
2022/03/19 01:53:31;;;;;;;12.90;2.78;;;;;;;;;;10323756;28;20137;-72
2022/03/19 01:58:32;;;;;;;15.50;3.58;;;;;;;;;;10339361;28;20050;-73
2022/03/19 02:03:34;;;;;;;11.63;3.15;;;;;;;;;;10326244;28;20059;-72
2022/03/19 02:08:37;;;;;;;16.83;3.17;;;;;;;;;;10318818;28;20714;-72
2022/03/19 02:13:40;;;;;;;8.65;2.83;;;;;;;;;;10336565;28;20161;-72
2022/03/19 02:18:41;;;;;;;14.95;3.75;;;;;;;;;;10339074;28;20050;-72
2022/03/19 02:29:02;;;;;;;12.90;3.47;;;;;;;;;;10324539;28;20058;-72
2022/03/19 02:34:08;;;;;;;10.57;3.67;;;;;;;;;;10329937;28;20049;-72
2022/03/19 02:39:09;;;;;;;10.68;3.47;;;;;;;;;;10329320;28;20050;-72
2022/03/19 02:44:11;;;;;;;13.23;3.10;;;;;;;;;;10330357;28;20058;-72
2022/03/19 02:49:13;;;;;;;12.77;3.55;;;;;;;;;;10323093;28;20053;-72
2022/03/19 02:54:16;;;;;;;13.18;3.38;;;;;;;;;;10323065;28;20062;-72
2022/03/19 02:59:20;;;;;;;11.35;3.42;;;;;;;;;;10329406;28;20050;-72
2022/03/19 03:04:23;;;;;;;12.77;3.63;;;;;;;;;;10340681;28;20054;-72
2022/03/19 03:09:25;;;;;;;13.32;3.55;;;;;;;;;;10322342;28;20054;-72
2022/03/19 03:14:26;;;;;;;14.35;3.38;;;;;;;;;;10321717;28;20048;-73
2022/03/19 03:19:28;;;;;;;15.63;3.40;;;;;;;;;;10321588;28;20050;-72
2022/03/19 03:24:29;;;;;;;13.70;3.80;;;;;;;;;;10321208;28;20543;-72
2022/03/19 03:29:30;;;;;;;8.05;2.92;;;;;;;;;;10321735;28;20057;-73
2022/03/19 03:34:32;;;;;;;11.07;3.35;;;;;;;;;;10321790;28;20056;-72
2022/03/19 03:39:33;;;;;;;15.82;3.38;;;;;;;;;;10332078;28;20038;-72
2022/03/19 03:44:35;;;;;;;12.25;3.88;;;;;;;;;;10321063;28;20065;-71
2022/03/19 03:49:36;;;;;;;12.55;3.80;;;;;;;;;;10320704;28;20042;-72
2022/03/19 03:54:38;;;;;;;14.52;4.03;;;;;;;;;;10320415;28;20129;-72
2022/03/19 03:59:39;;;;;;;11.15;4.38;;;;;;;;;;10319773;28;20050;-72
2022/03/19 04:04:41;;;;;;;10.73;3.63;;;;;;;;;;10338675;28;20058;-72
2022/03/19 04:09:42;;;;;;;15.00;4.07;;;;;;;;;;10320212;28;20042;-72
2022/03/19 04:14:44;;;;;;;17.42;4.65;;;;;;;;;;10319694;28;20042;-72
2022/03/19 04:19:45;;;;;;;19.80;4.90;;;;;;;;;;10326342;28;20056;-71
2022/03/19 04:24:47;;;;;;;13.82;4.78;;;;;;;;;;10319396;28;20046;-72
2022/03/19 04:29:49;;;;;;;16.08;4.95;;;;;;;;;;10319385;28;20050;-72
2022/03/19 04:34:50;;;;;;;9.85;4.35;;;;;;;;;;10320482;28;20534;-71
2022/03/19 04:39:51;;;;;;;20.40;5.05;;;;;;;;;;10319842;28;20163;-72
2022/03/19 04:44:55;;;;;;;21.13;6.10;;;;;;;;;;10318937;28;20576;-71
2022/03/19 04:49:56;;;;;;;19.45;5.95;;;;;;;;;;10318249;28;20060;-71
2022/03/19 04:55:00;;;;;;;23.38;7.32;;;;;;;;;;10301267;28;20918;-72
2022/03/19 05:00:04;;;;;;;18.58;6.40;;;;;;;;;;10317626;28;20058;-71
2022/03/19 05:05:06;;;;;;;16.98;6.97;;;;;;;;;;10323458;28;20050;-72
2022/03/19 05:15:28;;;;;;;24.42;7.05;;;;;;;;;;10330662;28;20050;-72
2022/03/19 05:20:29;;;;;;;17.27;6.65;;;;;;;;;;10318778;28;20042;-72
2022/03/19 05:25:31;;;;;;;20.25;6.97;;;;;;;;;;10320730;28;20038;-72
2022/03/19 05:30:32;;;;;;;22.38;7.55;;;;;;;;;;10317105;28;20046;-72
2022/03/19 05:35:34;;;;;;;22.00;7.00;;;;;;;;;;10317963;28;20050;-72
2022/03/19 05:40:35;;;;;;;20.83;6.55;;;;;;;;;;10330602;28;20391;-72
2022/03/19 05:45:37;;;;;;;16.27;6.57;;;;;;;;;;10317244;28;20045;-72
2022/03/19 05:50:38;;;;;;;14.63;6.30;;;;;;;;;;10323622;28;20089;-71
2022/03/19 05:55:40;;;;;;;19.45;7.22;;;;;;;;;;10316975;28;20046;-71
2022/03/19 06:00:41;;;;;;;18.20;6.75;;;;;;;;;;10317347;28;20054;-71
2022/03/19 06:05:43;;;;;;;16.35;6.80;;;;;;;;;;10322587;28;20693;-71
2022/03/19 06:10:46;;;;;;;19.55;5.88;;;;;;;;;;10316383;28;20499;-72
2022/03/19 06:15:47;;;;;;;20.88;6.40;;;;;;;;;;10326160;28;20085;-71
2022/03/19 06:20:49;;;;;;;22.27;7.35;;;;;;;;;;10316369;28;20038;-71
2022/03/19 06:25:50;;;;;;;20.92;6.82;;;;;;;;;;10324253;28;20039;-71
2022/03/19 06:30:51;;;;;;;16.15;6.30;;;;;;;;;;10316865;28;20056;-71
2022/03/19 06:41:14;;;;;;;15.88;5.60;;;;;;;;;;10342962;28;20100;-72
2022/03/19 06:46:16;;;;;;;13.68;5.95;;;;;;;;;;10334934;28;20054;-72
2022/03/19 06:51:19;;;;;;;18.50;6.45;;;;;;;;;;10325099;28;20043;-72
2022/03/19 06:56:23;;;;;;;16.60;5.55;;;;;;;;;;10340117;28;20050;-71
2022/03/19 07:01:30;;;;;;;15.48;5.07;;;;;;;;;;10350483;28;20052;-68
2022/03/19 07:06:32;;;;;;;14.85;5.28;;;;;;;;;;10348141;28;20062;-70
2022/03/19 07:11:53;;;;;;;16.48;5.30;;;;;;;;;;10348566;28;20433;-70
2022/03/19 07:16:55;;;;;;;23.15;5.28;;;;;;;;;;10348821;28;20077;-70
2022/03/19 07:21:57;;;;;;;20.73;5.57;;;;;;;;;;10337809;28;20050;-70
2022/03/19 07:26:59;;;;;;;16.45;4.90;;;;;;;;;;10330191;28;20038;-70
2022/03/19 07:32:02;;;;;;;22.48;5.22;;;;;;;;;;10330966;28;20097;-72
2022/03/19 07:37:03;;;;;;;15.18;4.97;;;;;;;;;;10338626;28;20514;-70
2022/03/19 07:42:05;;;;;;;18.58;4.95;;;;;;;;;;10351068;28;20458;-70
2022/03/19 07:47:06;;;;;;;16.08;4.10;;;;;;;;;;10343214;28;20095;-71
2022/03/19 07:52:08;;;;;;;12.45;4.07;;;;;;;;;;10339661;28;20049;-70
2022/03/19 07:57:11;;;;;;;17.67;3.88;;;;;;;;;;10344901;28;20089;-71
2022/03/19 08:02:12;;;;;;;12.45;3.95;;;;;;;;;;10349852;28;20054;-69
2022/03/19 08:07:15;;;;;;;12.98;3.78;;;;;;;;;;10343740;28;20046;-72
2022/03/19 08:12:16;;;;;;;17.98;4.00;;;;;;;;;;10346354;28;20128;-70
2022/03/19 08:17:18;;;;;;;11.68;3.90;;;;;;;;;;10347369;28;20129;-70
2022/03/19 08:22:20;;;;;;;17.23;3.42;;;;;;;;;;10342855;28;20046;-70
2022/03/19 08:27:24;;;;;;;15.50;4.00;;;;;;;;;;10346869;28;20089;-71
2022/03/19 08:32:26;;;;;;;14.85;3.47;;;;;;;;;;10346136;28;20476;-71
2022/03/19 08:37:27;;;;;;;15.55;4.05;;;;;;;;;;10344887;28;20050;-70
2022/03/19 08:42:29;;;;;;;11.73;3.15;;;;;;;;;;10342340;28;20046;-71
2022/03/19 08:47:30;;;;;;;13.30;3.45;;;;;;;;;;10350779;28;20078;-72
2022/03/19 08:52:33;;;;;;;16.20;3.50;;;;;;;;;;10342971;28;20058;-71
2022/03/19 08:57:34;;;;;;;10.45;2.55;;;;;;;;;;10344485;28;20070;-71
2022/03/19 09:02:36;;;;;;;9.80;2.83;;;;;;;;;;10349429;28;20048;-71
2022/03/19 09:07:37;;;;;;;11.52;3.20;;;;;;;;;;10345896;28;20124;-69
2022/03/19 09:12:39;;;;;;;11.32;3.42;;;;;;;;;;10340721;28;20038;-71
2022/03/19 09:17:41;;;;;;;14.57;4.38;;;;;;;;;;10339817;28;20466;-71
2022/03/19 09:22:42;;;;;;;15.05;3.15;;;;;;;;;;10340211;28;20049;-72
2022/03/19 09:27:43;;;;;;;9.20;2.55;;;;;;;;;;10341294;28;20041;-72
2022/03/19 09:32:45;;;;;;;13.35;2.97;;;;;;;;;;10341374;28;20042;-72
2022/03/19 09:38:06;;;;;;;11.82;2.65;;;;;;;;;;10337867;28;20053;-72
2022/03/19 09:43:11;;;;;;;6.72;1.88;;;;;;;;;;10349103;28;20062;-71
2022/03/19 09:48:26;;;;;;;9.25;2.10;;;;;;;;;;10330489;28;20092;-72
2022/03/19 09:53:28;;;;;;;10.85;2.92;;;;;;;;;;10344350;28;20068;-72
2022/03/19 09:58:51;;;;;;;7.03;1.30;;;;;;;;;;10339365;28;20457;-69
2022/03/19 10:03:59;;;;;;;9.40;1.75;;;;;;;;;;10349883;28;20057;-71
2022/03/19 10:09:00;;;;;;;9.57;2.90;;;;;;;;;;10339270;28;20042;-72
2022/03/19 10:14:06;;;;;;;7.80;1.63;;;;;;;;;;10337740;28;20532;-71
2022/03/19 10:19:07;;;;;;;12.63;3.03;;;;;;;;;;10328413;28;20050;-71
2022/03/19 10:24:20;;;;;;;15.35;4.55;;;;;;;;;;10336184;28;20050;-72
2022/03/19 10:29:33;;;;;;;10.60;2.83;;;;;;;;;;10331334;28;20495;-73
2022/03/19 10:34:40;;;;;;;8.70;2.38;;;;;;;;;;10350564;28;20054;-71
2022/03/19 10:39:45;;;;;;;7.45;1.95;;;;;;;;;;10350578;28;20049;-72
2022/03/19 10:44:47;;;;;;;8.48;1.77;;;;;;;;;;10350005;28;20046;-72
2022/03/19 10:49:49;;;;;;;9.80;2.00;;;;;;;;;;10348661;28;20095;-72
2022/03/19 10:54:51;;;;;;;12.25;2.45;;;;;;;;;;10346145;28;20049;-72
2022/03/19 10:59:52;;;;;;;5.95;1.35;;;;;;;;;;10345558;28;20046;-72
2022/03/19 11:04:54;;;;;;;8.18;1.50;;;;;;;;;;10346665;28;20081;-72
2022/03/19 11:09:56;;;;;;;8.15;1.40;;;;;;;;;;10339622;28;20583;-72
2022/03/19 11:14:58;;;;;;;6.93;1.83;;;;;;;;;;10346406;28;20057;-70
2022/03/19 11:20:00;;;;;;;6.55;1.45;;;;;;;;;;10343340;28;20081;-70
2022/03/19 11:25:22;;;;;;;6.05;1.38;;;;;;;;;;10338937;28;20411;-71
2022/03/19 11:30:25;;;;;;;7.00;1.83;;;;;;;;;;10276646;28;20505;-70
2022/03/19 11:35:27;;;;;;;6.18;1.40;;;;;;;;;;10305502;28;20045;-70
2022/03/19 11:40:35;;;;;;;6.07;1.23;;;;;;;;;;10290610;28;20558;-70
2022/03/19 11:45:53;;;;;;;8.35;1.20;;;;;;;;;;10289629;28;20097;-71
2022/03/19 11:50:54;;;;;;;4.25;0.90;;;;;;;;;;10282126;28;20074;-70
2022/03/19 11:56:00;;;;;;;6.18;1.25;;;;;;;;;;10280650;28;20042;-70
2022/03/19 12:01:07;;;;;;;8.23;2.35;;;;;;;;;;10296418;28;20125;-70
2022/03/19 12:06:28;;;;;;;10.07;2.72;;;;;;;;;;10300491;28;20043;-71
2022/03/19 12:11:29;;;;;;;;;;;;;;;;;;10287736;28;20045;-70
2022/03/19 12:16:41;;;;;;;12.40;2.78;;;;;;;;;;10304444;28;20457;-70
2022/03/19 12:21:44;;;;;;;8.13;2.20;;;;;;;;;;10296941;28;20044;-68
2022/03/19 12:26:46;;;;;;;11.73;1.83;;;;;;;;;;10309665;28;20482;-67
2022/03/19 12:31:49;;;;;;;16.80;5.50;;;;;;;;;;10303354;28;20042;-67
2022/03/19 12:36:51;;;;;;;6.55;1.17;;;;;;;;;;10302647;28;20038;-69
2022/03/19 12:41:53;;;;;;;6.47;1.45;;;;;;;;;;10298551;28;20051;-70
2022/03/19 12:47:09;;;;;;;6.50;1.60;;;;;;;;;;10298801;28;20094;-69
2022/03/19 12:52:11;;;;;;;13.95;4.13;;;;;;;;;;10297697;28;20771;-66
2022/03/19 12:57:14;;;;;;;8.05;2.28;;;;;;;;;;10298017;28;20070;-67
2022/03/19 13:04:44;;;;;;;6.88;1.95;;;;;;;;;;10423454;28;20120;-65
2022/03/19 13:09:46;;;;;;;7.15;1.80;;;;;;;;;;10382037;28;20050;-66
2022/03/19 13:14:54;;;;;;;7.82;1.67;;;;;;;;;;10382156;28;20050;-65
2022/03/19 13:20:05;;;;;;;4.78;1.20;;;;;;;;;;10380688;28;20048;-65
2022/03/19 13:25:06;;;;;;;11.18;2.78;;;;;;;;;;10386889;28;20050;-65
2022/03/19 13:30:11;;;;;;;12.27;3.38;;;;;;;;;;10391578;28;20052;-68
2022/03/19 13:35:13;;;;;;;6.32;2.03;;;;;;;;;;10391069;28;20554;-68
2022/03/19 13:40:19;;;;;;;3.92;1.08;;;;;;;;;;10390856;28;20892;-66
2022/03/19 13:45:26;;;;;;;8.63;2.20;;;;;;;;;;10393388;28;20473;-67
2022/03/19 13:50:27;;;;;;;4.47;1.73;;;;;;;;;;10431843;28;20075;-67
2022/03/19 13:55:29;;;;;;;4.45;1.40;;;;;;;;;;10430094;28;20053;-68
2022/03/19 14:00:33;;;;;;;11.93;3.38;;;;;;;;;;10424056;28;20651;-70
2022/03/19 14:05:39;;;;;;;3.42;1.13;;;;;;;;;;10430004;28;20432;-67
2022/03/19 14:10:42;;;;;;;2.53;1.17;;;;;;;;;;10422356;28;20037;-67
2022/03/19 14:15:48;;;;;;;4.30;1.27;;;;;;;;;;10403876;28;20052;-67
2022/03/19 14:20:50;;;;;;;4.63;1.50;;;;;;;;;;10403260;28;20109;-67
2022/03/19 14:25:51;;;;;;;2.90;1.00;;;;;;;;;;10403317;28;20048;-68
2022/03/19 14:30:54;;;;;;;2.22;0.93;;;;;;;;;;10395530;28;20416;-68
2022/03/19 14:35:58;;;;;;;3.42;0.90;;;;;;;;;;10403048;28;20055;-68
2022/03/19 14:41:01;;;;;;;4.68;1.30;;;;;;;;;;10401759;28;20053;-67
2022/03/19 14:46:04;;;;;;;1.38;1.00;;;;;;;;;;10402111;28;20525;-67
2022/03/19 14:51:06;;;;;;;2.65;1.00;;;;;;;;;;10401815;28;20103;-67
2022/03/19 14:56:09;;;;;;;4.10;1.40;;;;;;;;;;10401660;28;20038;-67
2022/03/19 15:01:12;;;;;;;5.22;1.58;;;;;;;;;;10401689;28;20127;-68
2022/03/19 15:06:14;;;;;;;5.70;1.63;;;;;;;;;;10405772;28;20115;-66
2022/03/19 15:11:15;;;;;;;4.28;1.50;;;;;;;;;;10399374;28;20073;-69
2022/03/19 15:16:18;;;;;;;3.30;1.10;;;;;;;;;;10400671;28;20052;-68
2022/03/19 15:21:20;;;;;;;2.53;1.15;;;;;;;;;;10378704;28;20053;-68
2022/03/19 15:26:21;;;;;;;4.90;0.90;;;;;;;;;;10388113;28;20151;-68
2022/03/19 15:31:22;;;;;;;3.17;1.20;;;;;;;;;;10382452;28;20418;-68
2022/03/19 15:36:28;;;;;;;4.45;1.20;;;;;;;;;;10387119;28;20048;-68
2022/03/19 15:41:30;;;;;;;3.00;0.95;;;;;;;;;;10380805;28;20057;-67
2022/03/19 15:46:31;;;;;;;6.38;1.35;;;;;;;;;;10388251;28;20099;-69
2022/03/19 15:51:33;;;;;;;4.38;1.23;;;;;;;;;;10388045;28;20049;-70
2022/03/19 15:56:35;;;;;;;5.07;1.30;;;;;;;;;;10390762;28;20052;-69
2022/03/19 16:01:36;;;;;;;3.53;1.30;;;;;;;;;;10387653;28;20045;-69
2022/03/19 16:06:39;;;;;;;4.53;1.00;;;;;;;;;;10386228;28;20041;-69
2022/03/19 16:11:41;;;;;;;2.70;1.10;;;;;;;;;;10381985;28;20053;-70
2022/03/19 16:16:42;;;;;;;4.03;1.35;;;;;;;;;;10386372;28;20059;-71
2022/03/19 16:21:44;;;;;;;5.70;1.30;;;;;;;;;;10383973;28;20761;-70
2022/03/19 16:26:45;;;;;;;3.65;1.45;;;;;;;;;;10387856;28;20041;-71
2022/03/19 16:31:46;;;;;;;4.07;1.40;;;;;;;;;;10397762;28;20045;-70
2022/03/19 16:36:50;;;;;;;5.28;1.50;;;;;;;;;;10397555;28;20057;-70
2022/03/19 16:41:53;;;;;;;5.78;1.33;;;;;;;;;;10395904;28;20712;-70
2022/03/19 16:46:55;;;;;;;3.60;1.17;;;;;;;;;;10396898;28;20080;-71
2022/03/19 16:51:57;;;;;;;2.42;1.23;;;;;;;;;;10383811;28;20054;-71
2022/03/19 16:56:58;;;;;;;5.90;2.22;;;;;;;;;;10378704;28;20053;-71
2022/03/19 17:01:59;;;;;;;8.48;2.50;;;;;;;;;;10372515;28;20045;-69
2022/03/19 17:07:05;;;;;;;5.72;2.10;;;;;;;;;;10381946;28;20041;-71
2022/03/19 17:12:07;;;;;;;3.00;1.40;;;;;;;;;;10367673;28;20148;-70
2022/03/19 17:17:09;;;;;;;6.78;2.33;;;;;;;;;;10367572;28;20048;-71
2022/03/19 17:22:10;;;;;;;4.25;1.83;;;;;;;;;;10368038;28;20091;-72
2022/03/19 17:27:12;;;;;;;6.10;1.90;;;;;;;;;;10372912;28;20054;-71
2022/03/19 17:32:13;;;;;;;7.32;1.98;;;;;;;;;;10371648;28;20053;-71
2022/03/19 17:37:15;;;;;;;5.30;2.20;;;;;;;;;;10373909;28;20124;-70
2022/03/19 17:42:16;;;;;;;7.82;2.30;;;;;;;;;;10363304;28;20143;-70
2022/03/19 17:47:24;;;;;;;6.65;2.53;;;;;;;;;;10371307;28;20044;-70
2022/03/19 17:52:30;;;;;;;6.72;2.50;;;;;;;;;;10385275;28;20121;-71
2022/03/19 17:57:32;;;;;;;4.72;2.40;;;;;;;;;;10385005;28;20053;-72
2022/03/19 18:02:35;;;;;;;5.95;2.53;;;;;;;;;;10360335;28;20505;-72
2022/03/19 18:07:38;;;;;;;6.03;2.40;;;;;;;;;;10364951;28;20034;-70
2022/03/19 18:12:40;;;;;;;7.30;2.88;;;;;;;;;;10355809;28;20049;-71
2022/03/19 18:17:43;;;;;;;6.78;3.13;;;;;;;;;;10372671;28;20412;-72
2022/03/19 18:22:47;;;;;;;8.90;2.92;;;;;;;;;;10382158;28;20116;-71
2022/03/19 18:27:49;;;;;;;6.78;3.15;;;;;;;;;;10393280;28;20060;-71
2022/03/19 18:32:50;;;;;;;6.95;2.78;;;;;;;;;;10381560;28;20056;-71
2022/03/19 18:37:52;;;;;;;9.00;3.70;;;;;;;;;;10390658;28;20041;-72
2022/03/19 18:42:53;;;;;;;8.25;3.10;;;;;;;;;;10386516;28;20052;-72
2022/03/19 18:47:55;;;;;;;8.10;3.63;;;;;;;;;;10390145;28;20099;-71
2022/03/19 18:52:57;;;;;;;12.77;4.18;;;;;;;;;;10358575;28;20038;-71
2022/03/19 18:58:15;;;;;;;7.95;3.80;;;;;;;;;;10374439;28;20059;-72
2022/03/19 19:03:16;;;;;;;9.73;3.67;;;;;;;;;;10375824;28;20425;-72
2022/03/19 19:08:18;;;;;;;9.07;4.13;;;;;;;;;;10378983;28;20041;-72
2022/03/19 19:13:19;;;;;;;20.90;6.18;;;;;;;;;;10382678;28;20057;-71
2022/03/19 19:18:21;;;;;;;11.45;3.47;;;;;;;;;;10377475;28;20075;-70
2022/03/19 19:23:22;;;;;;;8.55;4.05;;;;;;;;;;10375972;28;20045;-72
2022/03/19 19:28:24;;;;;;;17.45;5.63;;;;;;;;;;10385420;28;20065;-70
2022/03/19 19:33:25;;;;;;;16.05;4.82;;;;;;;;;;10389087;28;20057;-72
2022/03/19 19:38:27;;;;;;;72.38;18.88;;;;;;;;;;10369881;28;20523;-72
2022/03/19 19:43:28;;;;;;;29.35;6.38;;;;;;;;;;10381862;28;20037;-73
2022/03/19 19:48:30;;;;;;;12.95;4.05;;;;;;;;;;10375836;28;20056;-71
2022/03/19 19:53:31;;;;;;;9.30;3.65;;;;;;;;;;10396121;28;20177;-70
2022/03/19 19:58:37;;;;;;;13.70;4.18;;;;;;;;;;10372510;28;20049;-71
2022/03/19 20:03:39;;;;;;;20.30;3.75;;;;;;;;;;10395595;28;20048;-71
2022/03/19 20:08:40;;;;;;;11.57;4.85;;;;;;;;;;10384633;28;20038;-71
2022/03/19 20:13:42;;;;;;;13.40;4.72;;;;;;;;;;10385036;28;20047;-71
2022/03/19 20:18:43;;;;;;;10.95;3.65;;;;;;;;;;10398353;28;20537;-71
2022/03/19 20:23:44;;;;;;;11.07;4.10;;;;;;;;;;10401813;28;20053;-71
2022/03/19 20:28:46;;;;;;;18.23;5.40;;;;;;;;;;10393113;28;20044;-70
2022/03/19 20:33:47;;;;;;;9.32;3.78;;;;;;;;;;10392654;28;20043;-69
2022/03/19 20:38:50;;;;;;;11.10;5.25;;;;;;;;;;10391947;28;20052;-71
2022/03/19 20:43:54;;;;;;;16.92;5.30;;;;;;;;;;10385806;28;20543;-71
2022/03/19 20:48:55;;;;;;;8.93;3.70;;;;;;;;;;10374665;28;20060;-71
2022/03/19 20:53:57;;;;;;;13.32;5.28;;;;;;;;;;10385471;28;20049;-71
2022/03/19 20:58:59;;;;;;;18.17;6.15;;;;;;;;;;10382740;28;20126;-71
2022/03/19 21:04:01;;;;;;;11.95;4.97;;;;;;;;;;10390475;28;20685;-71
2022/03/19 21:09:03;;;;;;;9.93;4.03;;;;;;;;;;10395890;28;20045;-71
2022/03/19 21:14:05;;;;;;;8.13;3.67;;;;;;;;;;10383481;28;20073;-72
2022/03/19 21:19:08;;;;;;;10.23;3.35;;;;;;;;;;10388127;28;20133;-71
2022/03/19 21:24:10;;;;;;;12.38;4.82;;;;;;;;;;10400459;28;20497;-71
2022/03/19 21:29:12;;;;;;;12.25;3.67;;;;;;;;;;10403380;28;20513;-73
2022/03/19 21:34:14;;;;;;;11.80;4.93;;;;;;;;;;10404471;28;20056;-71
2022/03/19 21:44:35;;;;;;;10.83;2.73;;;;;;;;;;10396766;28;20072;-71
2022/03/19 21:49:36;;;;;;;10.35;3.33;;;;;;;;;;10371772;28;20608;-71
2022/03/19 21:54:38;;;;;;;11.40;3.85;;;;;;;;;;10384325;28;20045;-71
2022/03/19 21:59:39;;;;;;;12.10;4.07;;;;;;;;;;10400473;28;20540;-72
2022/03/19 22:04:40;;;;;;;12.77;3.72;;;;;;;;;;10398158;28;20522;-71
2022/03/19 22:09:42;;;;;;;10.88;3.53;;;;;;;;;;10388971;28;20132;-70
2022/03/19 22:14:45;;;;;;;7.72;3.45;;;;;;;;;;10377229;28;20623;-71
2022/03/19 22:25:08;;;;;;;9.43;4.23;;;;;;;;;;10396907;28;20579;-71
2022/03/19 22:30:10;;;;;;;12.45;4.00;;;;;;;;;;10396756;28;20441;-71
2022/03/19 22:35:13;;;;;;;9.50;4.13;;;;;;;;;;10389053;28;20447;-71
2022/03/19 22:40:15;;;;;;;8.85;4.00;;;;;;;;;;10383079;28;20049;-71
2022/03/19 22:45:18;;;;;;;7.40;3.13;;;;;;;;;;10396653;28;20042;-71
2022/03/19 22:50:20;;;;;;;8.20;3.72;;;;;;;;;;10386001;28;20041;-71
2022/03/19 22:55:22;;;;;;;11.40;3.88;;;;;;;;;;10389616;28;20045;-71
2022/03/19 23:00:23;;;;;;;10.80;3.60;;;;;;;;;;10379594;28;20045;-70
2022/03/19 23:05:28;;;;;;;11.68;3.50;;;;;;;;;;10401449;28;20572;-71
2022/03/19 23:10:31;;;;;;;9.70;3.72;;;;;;;;;;10370971;28;20386;-71
2022/03/19 23:15:33;;;;;;;8.65;3.42;;;;;;;;;;10386122;28;20045;-71
2022/03/19 23:20:35;;;;;;;9.23;2.85;;;;;;;;;;10376059;28;20132;-71
2022/03/19 23:25:36;;;;;;;8.90;3.40;;;;;;;;;;10371677;28;20033;-72
2022/03/19 23:30:37;;;;;;;8.18;3.60;;;;;;;;;;10388570;28;20394;-72
2022/03/19 23:35:39;;;;;;;8.75;3.80;;;;;;;;;;10394735;28;20697;-71
2022/03/19 23:40:41;;;;;;;16.85;4.05;;;;;;;;;;10370846;28;20041;-72
2022/03/19 23:45:43;;;;;;;14.32;3.97;;;;;;;;;;10393480;28;20396;-71
2022/03/19 23:50:47;;;;;;;44.22;5.03;;;;;;;;;;10393382;28;20468;-70
2022/03/19 23:55:49;;;;;;;22.92;4.35;;;;;;;;;;10394485;28;20045;-71
